Milton, FL

9:21 AM CST on December 21, 2014 (GMT -0600)
JnK Ranch | Change Station
CLOSE
Current Station
Personal Weather Station
Location: Milton, FL
Elevation: 210 ft
Nearby Weather Stations

Elev 210 ft 30.76 °N, 87.05 °W | Updated 1 minute ago

Overcast
Overcast
55.4 °F
Feels Like 55.4 °F
N
4.0
Wind Variable Wind from ENE
Gusts 4.0 mph

Today
High -- | Low -- °F
--% Chance of Precip.
Yesterday
High -- | Low -- °F
Precip. -- in
6:41 AM 4:51 PM
Waning Crescent, 0% visible
Pressure 30.08 in
Visibility 9.0 miles
Clouds Overcast 1200 ft
Dew Point 53 °F
Humidity 92%
Rainfall 0.00 in
Snow Depth Not available.
UV 1 out of 12
Pollen .50 out of 12
Air Quality Not available.
Flu Activity Not available.
METAR KNDZ 211456Z AUTO 07008KT 9SM OVC012 14/11 A3012 RMK AO2 SLP185 T01390106 53002 $

More Conditions Fewer Conditions

Pressure 30.08 in
Visibility 9.0 miles
Clouds Overcast 1200 ft
Dew Point 53 °F
Humidity 92%
Rainfall 0.00 in
Snow Depth Not available.
UV 1 out of 12
Pollen .50 out of 12
Air Quality Not available.
Flu Activity Not available.
METAR KNDZ 211456Z AUTO 07008KT 9SM OVC012 14/11 A3012 RMK AO2 SLP185 T01390106 53002 $

More Conditions Fewer Conditions

10-Day Weather Forecast

Almanac

Astronomy

Dec. 21, 2014 Rise Set
Actual Time
Civil Twilight
Nautical Twilight
Astronomical Twilight
Moon
Length of Visible Light
Length of Day
Tomorrow will be .
, % of the Moon is Illuminated

Today's Extremes

State Highs State Lows

Community

WunderPhotos

Upload Photos

1,779,412 photos uploaded!

WunderBlogs® & News

Nearby

Air Quality

  Air Quality AQ Index Pollutant
Not available.

Snow Depth

Station Depth Elevation

Earthquake Activity

City Distance Mag. Time & Date
Minimum magnitude displayed is 2.5.

Coastal Water Temperatures

Place Temperature

Nearby Weather Stations